Aura — UBDJ5 — position and weather

sailwx.info

Track history (hours):
 
Tides and Currents Weather Stations Pressure Air Temp Water Temp Dewpoint Dewpoint Depression Visibility Wind Speed Wind Dir Waves Ship Positions

Aura

Last reported at 2018-Jun-15 04:46 UTC. Time now 2018-Jun-22 11:31 UTC.
Position N 46°07' E 037°08'.

Length 140 m; draft 2.9 m.

Type: Tanker. MMSI: 273355480.

Date/timePositionNaut miles runAvg speedWind from/ knotsBaromVisibWave heightAir tempDewpointWater temp
2018-Jun-15 04:46N 46°07' E 037°08'3 9.8
2018-Jun-15 04:28N 46°04' E 037°06'6 9.9
2018-Jun-15 03:52N 45°58' E 037°03'5 9.9
2018-Jun-15 03:23N 45°54' E 037°01'4 9.9
2018-Jun-15 03:00N 45°50' E 036°59'5 9.9
2018-Jun-15 02:30N 45°46' E 036°57'5 9.9
2018-Jun-15 02:00N 45°41' E 036°54'5 9.9
2018-Jun-15 01:30N 45°37' E 036°51'5 9.8
2018-Jun-15 01:00N 45°33' E 036°47'5 9.9
2018-Jun-15 00:30N 45°29' E 036°43'510.3
2018-Jun-15 00:00N 45°24' E 036°40'4 8.3
2018-Jun-14 23:30N 45°20' E 036°37'5 9.8
2018-Jun-14 23:00N 45°19' E 036°30'3 6.7
2018-Jun-14 22:30N 45°16' E 036°28'4 2.5
2018-Jun-14 20:45N 45°11' E 036°30'0 0.0
2018-Jun-14 20:30N 45°11' E 036°30'0 0.0
2018-Jun-14 20:00N 45°11' E 036°30'0 0.0
2018-Jun-14 19:30N 45°11' E 036°30'0 0.0
2018-Jun-14 19:00N 45°11' E 036°30'0 0.0
2018-Jun-14 18:30N 45°11' E 036°30'0 0.0
2018-Jun-14 18:00N 45°11' E 036°30'0 0.0
2018-Jun-14 17:30N 45°11' E 036°30'0 0.0
2018-Jun-14 17:00N 45°11' E 036°30'0 0.0
2018-Jun-14 16:30N 45°11' E 036°30'0 0.3
2018-Jun-14 16:00N 45°11' E 036°30'5 9.2
2018-Jun-14 15:31N 45°07' E 036°33'2 0.7
2018-Jun-14 12:18N 45°06' E 036°35'0 0.0
2018-Jun-14 11:54N 45°06' E 036°35'0 0.1
2018-Jun-14 11:30N 45°06' E 036°35'0 0.0
2018-Jun-14 11:00N 45°06' E 036°35'0 0.1
2018-Jun-14 10:30N 45°06' E 036°35'0 0.1
2018-Jun-14 09:54N 45°06' E 036°35'0 0.0
2018-Jun-14 06:21N 45°06' E 036°35'2 1.3
2018-Jun-14 04:57N 45°06' E 036°32'0 0.0
2018-Jun-14 04:24N 45°05' E 036°32'0 0.0
2018-Jun-14 04:00N 45°05' E 036°32'0 0.0
2018-Jun-14 03:30N 45°05' E 036°32'0 0.0
2018-Jun-14 02:51N 45°05' E 036°32'0 0.0
2018-Jun-14 02:30N 45°05' E 036°32'7 1.1
2018-Jun-13 20:08N 45°12' E 036°28'3 6.8
2018-Jun-13 19:40N 45°15' E 036°28'2 7.0
2018-Jun-13 19:26N 45°17' E 036°29'3 6.6
2018-Jun-13 18:58N 45°19' E 036°31'3 6.7
2018-Jun-13 18:30N 45°20' E 036°35'4 7.6
2018-Jun-13 18:00N 45°22' E 036°40'2 4.4
2018-Jun-13 17:30N 45°24' E 036°41'2 4.2
2018-Jun-13 17:00N 45°26' E 036°42'2 4.9
2018-Jun-13 16:30N 45°28' E 036°44'1 2.3
2018-Jun-13 16:00N 45°29' E 036°45'0 0.0
2018-Jun-13 15:30N 45°29' E 036°45'0 0.0
2018-Jun-13 15:00N 45°29' E 036°45'0 0.0
2018-Jun-13 14:30N 45°29' E 036°45'0 0.0
2018-Jun-13 14:00N 45°29' E 036°45'0 0.0
2018-Jun-13 13:30N 45°29' E 036°45'0 0.0
2018-Jun-13 13:00N 45°29' E 036°45'0 0.0
2018-Jun-13 12:30N 45°29' E 036°45'0 0.1
2018-Jun-13 12:00N 45°29' E 036°45'4 7.5
2018-Jun-13 11:30N 45°32' E 036°48'610.1
2018-Jun-13 10:56N 45°38' E 036°51'410.1
2018-Jun-13 10:29N 45°42' E 036°53'510.1
2018-Jun-13 10:01N 45°46' E 036°55'  
Track history (hours):
 
Tides and Currents Weather Stations Pressure Air Temp Water Temp Dewpoint Dewpoint Depression Visibility Wind Speed Wind Dir Waves Ship Positions

Aura

Last reported at 2018-Jun-15 04:46 UTC. Time now 2018-Jun-22 11:31 UTC.
Position N 46°07' E 037°08'.

Length 140 m; draft 2.9 m.

Type: Tanker. MMSI: 273355480.

Date/timePositionNaut miles runAvg speedWind from/ knotsBaromVisibWave heightAir tempDewpointWater temp
2018-Jun-15 04:46N 46°07' E 037°08'3 9.8
2018-Jun-15 04:28N 46°04' E 037°06'6 9.9
2018-Jun-15 03:52N 45°58' E 037°03'5 9.9
2018-Jun-15 03:23N 45°54' E 037°01'4 9.9
2018-Jun-15 03:00N 45°50' E 036°59'5 9.9
2018-Jun-15 02:30N 45°46' E 036°57'5 9.9
2018-Jun-15 02:00N 45°41' E 036°54'5 9.9
2018-Jun-15 01:30N 45°37' E 036°51'5 9.8
2018-Jun-15 01:00N 45°33' E 036°47'5 9.9
2018-Jun-15 00:30N 45°29' E 036°43'510.3
2018-Jun-15 00:00N 45°24' E 036°40'4 8.3
2018-Jun-14 23:30N 45°20' E 036°37'5 9.8
2018-Jun-14 23:00N 45°19' E 036°30'3 6.7
2018-Jun-14 22:30N 45°16' E 036°28'4 2.5
2018-Jun-14 20:45N 45°11' E 036°30'0 0.0
2018-Jun-14 20:30N 45°11' E 036°30'0 0.0
2018-Jun-14 20:00N 45°11' E 036°30'0 0.0
2018-Jun-14 19:30N 45°11' E 036°30'0 0.0
2018-Jun-14 19:00N 45°11' E 036°30'0 0.0
2018-Jun-14 18:30N 45°11' E 036°30'0 0.0
2018-Jun-14 18:00N 45°11' E 036°30'0 0.0
2018-Jun-14 17:30N 45°11' E 036°30'0 0.0
2018-Jun-14 17:00N 45°11' E 036°30'0 0.0
2018-Jun-14 16:30N 45°11' E 036°30'0 0.3
2018-Jun-14 16:00N 45°11' E 036°30'5 9.2
2018-Jun-14 15:31N 45°07' E 036°33'2 0.7
2018-Jun-14 12:18N 45°06' E 036°35'0 0.0
2018-Jun-14 11:54N 45°06' E 036°35'0 0.1
2018-Jun-14 11:30N 45°06' E 036°35'0 0.0
2018-Jun-14 11:00N 45°06' E 036°35'0 0.1
2018-Jun-14 10:30N 45°06' E 036°35'0 0.1
2018-Jun-14 09:54N 45°06' E 036°35'0 0.0
2018-Jun-14 06:21N 45°06' E 036°35'2 1.3
2018-Jun-14 04:57N 45°06' E 036°32'0 0.0
2018-Jun-14 04:24N 45°05' E 036°32'0 0.0
2018-Jun-14 04:00N 45°05' E 036°32'0 0.0
2018-Jun-14 03:30N 45°05' E 036°32'0 0.0
2018-Jun-14 02:51N 45°05' E 036°32'0 0.0
2018-Jun-14 02:30N 45°05' E 036°32'7 1.1
2018-Jun-13 20:08N 45°12' E 036°28'3 6.8
2018-Jun-13 19:40N 45°15' E 036°28'2 7.0
2018-Jun-13 19:26N 45°17' E 036°29'3 6.6
2018-Jun-13 18:58N 45°19' E 036°31'3 6.7
2018-Jun-13 18:30N 45°20' E 036°35'4 7.6
2018-Jun-13 18:00N 45°22' E 036°40'2 4.4
2018-Jun-13 17:30N 45°24' E 036°41'2 4.2
2018-Jun-13 17:00N 45°26' E 036°42'2 4.9
2018-Jun-13 16:30N 45°28' E 036°44'1 2.3
2018-Jun-13 16:00N 45°29' E 036°45'0 0.0
2018-Jun-13 15:30N 45°29' E 036°45'0 0.0
2018-Jun-13 15:00N 45°29' E 036°45'0 0.0
2018-Jun-13 14:30N 45°29' E 036°45'0 0.0
2018-Jun-13 14:00N 45°29' E 036°45'0 0.0
2018-Jun-13 13:30N 45°29' E 036°45'0 0.0
2018-Jun-13 13:00N 45°29' E 036°45'0 0.0
2018-Jun-13 12:30N 45°29' E 036°45'0 0.1
2018-Jun-13 12:00N 45°29' E 036°45'4 7.5
2018-Jun-13 11:30N 45°32' E 036°48'610.1
2018-Jun-13 10:56N 45°38' E 036°51'410.1
2018-Jun-13 10:29N 45°42' E 036°53'510.1
2018-Jun-13 10:01N 45°46' E 036°55'  

Dump ship's entire track history